sensor_id;sensor_type;location;lat;lon;timestamp;pressure;altitude;pressure_sealevel;temperature;humidity
45813;BME280;31519;45.408;10.962;2023-11-19T00:01:35;101354.16;;;10.14;61.07
45813;BME280;31519;45.408;10.962;2023-11-19T00:04:04;101341.06;;;10.22;61.04
45813;BME280;31519;45.408;10.962;2023-11-19T00:06:33;101340.03;;;10.13;60.97
45813;BME280;31519;45.408;10.962;2023-11-19T00:09:01;101359.06;;;10.02;60.77
45813;BME280;31519;45.408;10.962;2023-11-19T00:11:32;101350.38;;;9.86;61.44
45813;BME280;31519;45.408;10.962;2023-11-19T00:14:00;101342.28;;;10.01;60.65
45813;BME280;31519;45.408;10.962;2023-11-19T00:16:28;101318.69;;;10.23;59.96
45813;BME280;31519;45.408;10.962;2023-11-19T00:18:56;101323.88;;;10.39;59.47
45813;BME280;31519;45.408;10.962;2023-11-19T00:21:25;101313.03;;;10.30;58.95
45813;BME280;31519;45.408;10.962;2023-11-19T00:23:56;101307.66;;;10.35;58.53
45813;BME280;31519;45.408;10.962;2023-11-19T00:26:26;101322.88;;;10.58;57.55
45813;BME280;31519;45.408;10.962;2023-11-19T00:28:55;101316.03;;;10.23;58.22
45813;BME280;31519;45.408;10.962;2023-11-19T00:31:24;101331.78;;;10.15;58.19
45813;BME280;31519;45.408;10.962;2023-11-19T00:33:55;101327.88;;;10.36;57.43
45813;BME280;31519;45.408;10.962;2023-11-19T00:36:24;101320.69;;;10.37;57.22
45813;BME280;31519;45.408;10.962;2023-11-19T00:38:53;101312.75;;;10.55;56.40
45813;BME280;31519;45.408;10.962;2023-11-19T00:41:21;101311.53;;;10.72;56.40
45813;BME280;31519;45.408;10.962;2023-11-19T00:43:50;101315.44;;;10.79;55.88
45813;BME280;31519;45.408;10.962;2023-11-19T00:46:18;101312.03;;;10.74;55.84
45813;BME280;31519;45.408;10.962;2023-11-19T00:48:47;101311.41;;;10.58;55.66
45813;BME280;31519;45.408;10.962;2023-11-19T00:51:16;101304.44;;;10.62;55.91
45813;BME280;31519;45.408;10.962;2023-11-19T00:53:44;101319.63;;;10.61;56.49
45813;BME280;31519;45.408;10.962;2023-11-19T00:56:12;101321.56;;;10.80;55.85
45813;BME280;31519;45.408;10.962;2023-11-19T00:58:41;101321.09;;;10.73;56.44
45813;BME280;31519;45.408;10.962;2023-11-19T01:01:11;101323.63;;;10.59;57.12
45813;BME280;31519;45.408;10.962;2023-11-19T01:03:39;101314.88;;;10.58;57.51
45813;BME280;31519;45.408;10.962;2023-11-19T01:06:08;101318.09;;;10.79;56.83
45813;BME280;31519;45.408;10.962;2023-11-19T01:08:37;101303.44;;;10.58;56.94
45813;BME280;31519;45.408;10.962;2023-11-19T01:11:05;101297.53;;;10.61;57.40
45813;BME280;31519;45.408;10.962;2023-11-19T01:13:33;101289.91;;;10.73;56.71
45813;BME280;31519;45.408;10.962;2023-11-19T01:16:01;101291.56;;;10.69;56.61
45813;BME280;31519;45.408;10.962;2023-11-19T01:18:30;101292.13;;;10.42;57.89
45813;BME280;31519;45.408;10.962;2023-11-19T01:21:01;101287.94;;;10.36;58.02
45813;BME280;31519;45.408;10.962;2023-11-19T01:23:29;101288.09;;;10.21;58.82
45813;BME280;31519;45.408;10.962;2023-11-19T01:25:58;101297.47;;;10.42;58.15
45813;BME280;31519;45.408;10.962;2023-11-19T01:28:26;101277.47;;;10.21;59.04
45813;BME280;31519;45.408;10.962;2023-11-19T01:30:55;101280.41;;;10.43;58.29
45813;BME280;31519;45.408;10.962;2023-11-19T01:33:23;101274.13;;;10.34;58.29
45813;BME280;31519;45.408;10.962;2023-11-19T01:35:52;101270.59;;;10.10;59.76
45813;BME280;31519;45.408;10.962;2023-11-19T01:38:20;101272.19;;;10.16;59.25
45813;BME280;31519;45.408;10.962;2023-11-19T01:40:48;101271.34;;;10.20;59.28
45813;BME280;31519;45.408;10.962;2023-11-19T01:46:05;101256.22;;;10.16;58.09
45813;BME280;31519;45.408;10.962;2023-11-19T01:48:35;101261.31;;;10.36;58.76
45813;BME280;31519;45.408;10.962;2023-11-19T01:51:05;101269.22;;;10.17;58.60
45813;BME280;31519;45.408;10.962;2023-11-19T01:53:36;101269.88;;;10.33;57.87
45813;BME280;31519;45.408;10.962;2023-11-19T01:56:07;101266.34;;;10.09;58.80
45813;BME280;31519;45.408;10.962;2023-11-19T01:58:38;101264.16;;;10.21;58.67
45813;BME280;31519;45.408;10.962;2023-11-19T02:01:08;101271.34;;;10.44;57.58
45813;BME280;31519;45.408;10.962;2023-11-19T02:03:37;101262.19;;;10.27;57.75
45813;BME280;31519;45.408;10.962;2023-11-19T02:06:06;101251.06;;;10.25;57.67
45813;BME280;31519;45.408;10.962;2023-11-19T02:08:35;101246.59;;;10.15;57.55
45813;BME280;31519;45.408;10.962;2023-11-19T02:11:03;101244.72;;;10.20;57.73
45813;BME280;31519;45.408;10.962;2023-11-19T02:13:37;101246.06;;;10.13;57.09
45813;BME280;31519;45.408;10.962;2023-11-19T02:16:07;101246.38;;;10.11;56.86
45813;BME280;31519;45.408;10.962;2023-11-19T02:18:37;101235.66;;;10.21;56.99
45813;BME280;31519;45.408;10.962;2023-11-19T02:21:06;101231.19;;;10.17;57.24
45813;BME280;31519;45.408;10.962;2023-11-19T02:23:34;101233.34;;;10.10;57.16
45813;BME280;31519;45.408;10.962;2023-11-19T02:26:05;101231.09;;;9.98;57.03
45813;BME280;31519;45.408;10.962;2023-11-19T02:28:36;101227.22;;;10.09;57.24
45813;BME280;31519;45.408;10.962;2023-11-19T02:31:05;101221.16;;;10.04;56.98
45813;BME280;31519;45.408;10.962;2023-11-19T02:33:38;101223.88;;;9.99;57.64
45813;BME280;31519;45.408;10.962;2023-11-19T02:36:07;101219.38;;;10.23;56.86
45813;BME280;31519;45.408;10.962;2023-11-19T02:38:36;101208.88;;;10.08;56.58
45813;BME280;31519;45.408;10.962;2023-11-19T02:41:05;101204.16;;;10.00;56.56
45813;BME280;31519;45.408;10.962;2023-11-19T02:43:35;101196.13;;;10.05;56.63
45813;BME280;31519;45.408;10.962;2023-11-19T02:46:05;101194.66;;;9.94;56.71
45813;BME280;31519;45.408;10.962;2023-11-19T02:48:39;101201.97;;;10.07;56.54
45813;BME280;31519;45.408;10.962;2023-11-19T02:51:08;101199.69;;;9.95;57.36
45813;BME280;31519;45.408;10.962;2023-11-19T02:53:39;101189.22;;;10.04;57.28
45813;BME280;31519;45.408;10.962;2023-11-19T02:56:08;101183.00;;;9.90;57.89
45813;BME280;31519;45.408;10.962;2023-11-19T02:58:47;101180.34;;;9.90;58.10
45813;BME280;31519;45.408;10.962;2023-11-19T03:01:24;101187.41;;;9.99;57.82
45813;BME280;31519;45.408;10.962;2023-11-19T03:04:02;101180.88;;;9.87;58.05
45813;BME280;31519;45.408;10.962;2023-11-19T03:06:32;101170.88;;;9.78;59.16
45813;BME280;31519;45.408;10.962;2023-11-19T03:09:00;101176.59;;;9.91;58.86
45813;BME280;31519;45.408;10.962;2023-11-19T03:11:34;101172.56;;;9.69;59.16
45813;BME280;31519;45.408;10.962;2023-11-19T03:14:02;101172.16;;;9.81;59.00
45813;BME280;31519;45.408;10.962;2023-11-19T03:16:32;101169.75;;;9.56;59.98
45813;BME280;31519;45.408;10.962;2023-11-19T03:19:01;101175.03;;;9.61;60.26
45813;BME280;31519;45.408;10.962;2023-11-19T03:21:29;101189.13;;;9.61;60.53
45813;BME280;31519;45.408;10.962;2023-11-19T03:23:59;101181.47;;;9.55;60.84
45813;BME280;31519;45.408;10.962;2023-11-19T03:26:28;101184.09;;;9.60;60.70
45813;BME280;31519;45.408;10.962;2023-11-19T03:28:56;101185.47;;;9.81;60.00
45813;BME280;31519;45.408;10.962;2023-11-19T03:31:27;101181.16;;;9.61;60.56
45813;BME280;31519;45.408;10.962;2023-11-19T03:33:55;101186.75;;;9.60;60.69
45813;BME280;31519;45.408;10.962;2023-11-19T03:36:32;101181.34;;;9.70;60.66
45813;BME280;31519;45.408;10.962;2023-11-19T03:39:00;101182.88;;;9.47;61.60
45813;BME280;31519;45.408;10.962;2023-11-19T03:41:29;101169.44;;;9.33;62.31
45813;BME280;31519;45.408;10.962;2023-11-19T03:44:08;101165.72;;;9.34;62.26
45813;BME280;31519;45.408;10.962;2023-11-19T03:46:37;101169.66;;;9.66;61.89
45813;BME280;31519;45.408;10.962;2023-11-19T03:49:05;101167.84;;;9.61;61.74
45813;BME280;31519;45.408;10.962;2023-11-19T03:51:35;101162.84;;;9.55;61.84
45813;BME280;31519;45.408;10.962;2023-11-19T03:54:04;101158.28;;;9.31;62.82
45813;BME280;31519;45.408;10.962;2023-11-19T03:56:32;101160.78;;;9.18;63.70
45813;BME280;31519;45.408;10.962;2023-11-19T03:59:00;101157.06;;;9.19;65.02
45813;BME280;31519;45.408;10.962;2023-11-19T04:01:29;101147.94;;;9.30;64.79
45813;BME280;31519;45.408;10.962;2023-11-19T04:03:57;101145.59;;;9.23;64.93
45813;BME280;31519;45.408;10.962;2023-11-19T04:06:25;101150.50;;;9.06;65.12
45813;BME280;31519;45.408;10.962;2023-11-19T04:08:53;101145.34;;;9.20;64.60
45813;BME280;31519;45.408;10.962;2023-11-19T04:11:22;101146.63;;;9.27;64.66
45813;BME280;31519;45.408;10.962;2023-11-19T04:13:50;101134.56;;;9.06;65.71
45813;BME280;31519;45.408;10.962;2023-11-19T04:16:18;101139.69;;;8.98;66.76
45813;BME280;31519;45.408;10.962;2023-11-19T04:18:46;101144.13;;;9.07;66.67
45813;BME280;31519;45.408;10.962;2023-11-19T04:21:15;101147.06;;;9.06;66.77
45813;BME280;31519;45.408;10.962;2023-11-19T04:23:43;101143.22;;;9.17;65.19
45813;BME280;31519;45.408;10.962;2023-11-19T04:26:12;101137.41;;;9.15;64.45
45813;BME280;31519;45.408;10.962;2023-11-19T04:28:40;101133.44;;;9.12;65.01
45813;BME280;31519;45.408;10.962;2023-11-19T04:31:08;101143.41;;;8.97;66.72
45813;BME280;31519;45.408;10.962;2023-11-19T04:33:37;101141.81;;;8.96;66.56
45813;BME280;31519;45.408;10.962;2023-11-19T04:36:06;101139.28;;;9.14;65.29
45813;BME280;31519;45.408;10.962;2023-11-19T04:38:35;101130.28;;;9.10;64.03
45813;BME280;31519;45.408;10.962;2023-11-19T04:41:03;101139.00;;;9.16;64.17
45813;BME280;31519;45.408;10.962;2023-11-19T04:43:33;101145.41;;;9.15;62.71
45813;BME280;31519;45.408;10.962;2023-11-19T04:46:04;101135.53;;;9.20;62.78
45813;BME280;31519;45.408;10.962;2023-11-19T04:48:32;101136.19;;;9.02;61.79
45813;BME280;31519;45.408;10.962;2023-11-19T04:51:09;101132.25;;;9.28;61.00
45813;BME280;31519;45.408;10.962;2023-11-19T04:53:37;101136.44;;;9.06;61.93
45813;BME280;31519;45.408;10.962;2023-11-19T04:56:10;101131.56;;;9.13;61.89
45813;BME280;31519;45.408;10.962;2023-11-19T04:58:39;101120.81;;;8.94;62.39
45813;BME280;31519;45.408;10.962;2023-11-19T05:01:13;101125.31;;;8.99;62.88
45813;BME280;31519;45.408;10.962;2023-11-19T05:03:44;101118.78;;;9.20;62.42
45813;BME280;31519;45.408;10.962;2023-11-19T05:06:13;101119.72;;;9.00;62.92
45813;BME280;31519;45.408;10.962;2023-11-19T05:08:44;101117.03;;;9.05;62.19
45813;BME280;31519;45.408;10.962;2023-11-19T05:11:12;101117.94;;;8.90;62.91
45813;BME280;31519;45.408;10.962;2023-11-19T05:13:45;101120.00;;;8.99;62.52
45813;BME280;31519;45.408;10.962;2023-11-19T05:16:14;101111.16;;;9.08;62.08
45813;BME280;31519;45.408;10.962;2023-11-19T05:18:43;101111.94;;;9.09;61.83
45813;BME280;31519;45.408;10.962;2023-11-19T05:21:12;101112.66;;;9.19;61.80
45813;BME280;31519;45.408;10.962;2023-11-19T05:23:40;101106.13;;;9.07;61.71
45813;BME280;31519;45.408;10.962;2023-11-19T05:26:17;101096.16;;;9.22;61.53
45813;BME280;31519;45.408;10.962;2023-11-19T05:28:45;101101.19;;;8.90;62.60
45813;BME280;31519;45.408;10.962;2023-11-19T05:31:16;101102.00;;;8.90;62.98
45813;BME280;31519;45.408;10.962;2023-11-19T05:33:45;101100.50;;;8.79;63.67
45813;BME280;31519;45.408;10.962;2023-11-19T05:36:13;101102.06;;;8.80;63.78
45813;BME280;31519;45.408;10.962;2023-11-19T05:38:41;101091.97;;;8.82;64.12
45813;BME280;31519;45.408;10.962;2023-11-19T05:41:10;101088.09;;;8.70;64.66
45813;BME280;31519;45.408;10.962;2023-11-19T05:43:38;101088.25;;;8.83;64.55
45813;BME280;31519;45.408;10.962;2023-11-19T05:46:08;101101.28;;;8.80;64.00
45813;BME280;31519;45.408;10.962;2023-11-19T05:48:39;101090.19;;;8.73;63.80
45813;BME280;31519;45.408;10.962;2023-11-19T05:51:08;101093.31;;;8.80;63.57
45813;BME280;31519;45.408;10.962;2023-11-19T05:53:36;101095.97;;;8.80;63.25
45813;BME280;31519;45.408;10.962;2023-11-19T05:56:04;101088.00;;;8.80;62.94
45813;BME280;31519;45.408;10.962;2023-11-19T05:58:32;101090.34;;;8.86;61.93
45813;BME280;31519;45.408;10.962;2023-11-19T06:01:01;101085.66;;;8.73;61.57
45813;BME280;31519;45.408;10.962;2023-11-19T06:03:30;101080.97;;;8.60;61.89
45813;BME280;31519;45.408;10.962;2023-11-19T06:05:59;101073.81;;;8.61;62.30
45813;BME280;31519;45.408;10.962;2023-11-19T06:08:27;101079.09;;;8.66;62.19
45813;BME280;31519;45.408;10.962;2023-11-19T06:10:55;101081.75;;;8.66;62.42
45813;BME280;31519;45.408;10.962;2023-11-19T06:13:24;101081.13;;;8.79;62.45
45813;BME280;31519;45.408;10.962;2023-11-19T06:15:54;101074.13;;;8.49;63.53
45813;BME280;31519;45.408;10.962;2023-11-19T06:18:22;101074.91;;;8.55;63.83
45813;BME280;31519;45.408;10.962;2023-11-19T06:20:51;101073.00;;;8.60;63.47
45813;BME280;31519;45.408;10.962;2023-11-19T06:23:19;101066.41;;;8.53;63.79
45813;BME280;31519;45.408;10.962;2023-11-19T06:25:47;101075.47;;;8.52;64.66
45813;BME280;31519;45.408;10.962;2023-11-19T06:28:16;101079.22;;;8.45;65.50
45813;BME280;31519;45.408;10.962;2023-11-19T06:30:44;101080.78;;;8.52;65.44
45813;BME280;31519;45.408;10.962;2023-11-19T06:33:16;101083.13;;;8.53;65.50
45813;BME280;31519;45.408;10.962;2023-11-19T06:35:44;101082.34;;;8.53;65.55
45813;BME280;31519;45.408;10.962;2023-11-19T06:38:12;101079.59;;;8.68;65.74
45813;BME280;31519;45.408;10.962;2023-11-19T06:40:42;101073.69;;;8.76;65.36
45813;BME280;31519;45.408;10.962;2023-11-19T06:43:10;101075.50;;;8.80;65.59
45813;BME280;31519;45.408;10.962;2023-11-19T06:45:38;101077.56;;;8.94;65.11
45813;BME280;31519;45.408;10.962;2023-11-19T06:48:06;101082.56;;;8.61;66.08
45813;BME280;31519;45.408;10.962;2023-11-19T06:50:35;101084.16;;;8.57;66.18
45813;BME280;31519;45.408;10.962;2023-11-19T06:53:03;101083.84;;;8.69;66.47
45813;BME280;31519;45.408;10.962;2023-11-19T06:55:34;101075.84;;;8.74;66.07
45813;BME280;31519;45.408;10.962;2023-11-19T06:58:02;101086.97;;;8.76;65.97
45813;BME280;31519;45.408;10.962;2023-11-19T07:00:31;101091.19;;;8.82;66.17
45813;BME280;31519;45.408;10.962;2023-11-19T07:03:00;101087.16;;;8.84;65.72
45813;BME280;31519;45.408;10.962;2023-11-19T07:05:29;101094.41;;;8.79;66.39
45813;BME280;31519;45.408;10.962;2023-11-19T07:07:58;101107.66;;;8.84;66.90
45813;BME280;31519;45.408;10.962;2023-11-19T07:10:26;101108.91;;;9.25;65.36
45813;BME280;31519;45.408;10.962;2023-11-19T07:12:54;101096.81;;;9.09;65.15
45813;BME280;31519;45.408;10.962;2023-11-19T07:15:24;101095.25;;;9.03;65.05
45813;BME280;31519;45.408;10.962;2023-11-19T07:17:51;101094.25;;;9.28;64.42
45813;BME280;31519;45.408;10.962;2023-11-19T07:20:25;101104.34;;;9.55;63.01
45813;BME280;31519;45.408;10.962;2023-11-19T07:22:54;101099.03;;;10.02;61.64
45813;BME280;31519;45.408;10.962;2023-11-19T07:25:25;101105.13;;;10.27;60.74
45813;BME280;31519;45.408;10.962;2023-11-19T07:27:54;101107.56;;;10.42;59.64
45813;BME280;31519;45.408;10.962;2023-11-19T07:30:22;101120.09;;;10.79;58.31
45813;BME280;31519;45.408;10.962;2023-11-19T07:32:50;101111.50;;;10.82;57.71
45813;BME280;31519;45.408;10.962;2023-11-19T07:35:19;101104.25;;;10.68;58.49
45813;BME280;31519;45.408;10.962;2023-11-19T07:37:47;101115.44;;;10.71;58.35
45813;BME280;31519;45.408;10.962;2023-11-19T07:40:16;101120.63;;;10.81;57.81
45813;BME280;31519;45.408;10.962;2023-11-19T07:42:44;101113.94;;;10.97;57.50
45813;BME280;31519;45.408;10.962;2023-11-19T07:45:13;101116.94;;;11.09;57.32
45813;BME280;31519;45.408;10.962;2023-11-19T07:47:41;101123.06;;;11.09;57.23
45813;BME280;31519;45.408;10.962;2023-11-19T07:50:12;101123.75;;;11.47;57.38
45813;BME280;31519;45.408;10.962;2023-11-19T07:52:44;101126.44;;;11.47;56.61
45813;BME280;31519;45.408;10.962;2023-11-19T07:55:13;101131.56;;;11.11;56.64
45813;BME280;31519;45.408;10.962;2023-11-19T07:57:41;101129.53;;;11.22;56.77
45813;BME280;31519;45.408;10.962;2023-11-19T08:00:10;101137.34;;;11.32;57.46
45813;BME280;31519;45.408;10.962;2023-11-19T08:02:42;101147.19;;;11.64;57.77
45813;BME280;31519;45.408;10.962;2023-11-19T08:05:10;101143.19;;;11.80;57.31
45813;BME280;31519;45.408;10.962;2023-11-19T08:07:39;101157.03;;;11.82;57.52
45813;BME280;31519;45.408;10.962;2023-11-19T08:10:08;101159.91;;;12.13;57.01
45813;BME280;31519;45.408;10.962;2023-11-19T08:12:37;101162.47;;;12.32;56.47
45813;BME280;31519;45.408;10.962;2023-11-19T08:15:06;101165.22;;;12.54;55.65
45813;BME280;31519;45.408;10.962;2023-11-19T08:17:34;101155.63;;;12.39;56.06
45813;BME280;31519;45.408;10.962;2023-11-19T08:20:04;101159.56;;;12.92;54.92
45813;BME280;31519;45.408;10.962;2023-11-19T08:22:32;101154.72;;;12.80;54.98
45813;BME280;31519;45.408;10.962;2023-11-19T08:25:01;101153.13;;;12.79;55.03
45813;BME280;31519;45.408;10.962;2023-11-19T08:27:29;101138.66;;;13.38;53.40
45813;BME280;31519;45.408;10.962;2023-11-19T08:29:57;101140.28;;;13.25;53.10
45813;BME280;31519;45.408;10.962;2023-11-19T08:32:26;101145.06;;;13.59;52.76
45813;BME280;31519;45.408;10.962;2023-11-19T08:34:55;101154.44;;;13.79;52.22
45813;BME280;31519;45.408;10.962;2023-11-19T08:37:24;101160.31;;;13.28;51.84
45813;BME280;31519;45.408;10.962;2023-11-19T08:39:54;101156.72;;;13.32;51.69
45813;BME280;31519;45.408;10.962;2023-11-19T09:09:10;101158.63;;;13.71;50.32
45813;BME280;31519;45.408;10.962;2023-11-19T09:36:32;101139.19;;;16.07;45.08
45813;BME280;31519;45.408;10.962;2023-11-19T09:49:30;101128.78;;;16.26;44.71
45813;BME280;31519;45.408;10.962;2023-11-19T10:12:26;101103.94;;;15.24;46.65
